sensor_id;sensor_type;location;lat;lon;timestamp;temperature;humidity
24638;DHT22;12773;50.162;8.548;2023-04-03T00:02:34;7.00;99.90
24638;DHT22;12773;50.162;8.548;2023-04-03T00:05:22;7.10;99.90
24638;DHT22;12773;50.162;8.548;2023-04-03T00:08:09;7.20;99.90
24638;DHT22;12773;50.162;8.548;2023-04-03T00:10:57;7.10;99.90
24638;DHT22;12773;50.162;8.548;2023-04-03T00:13:44;7.10;99.90
24638;DHT22;12773;50.162;8.548;2023-04-03T00:16:32;7.10;99.90
24638;DHT22;12773;50.162;8.548;2023-04-03T00:19:19;7.10;99.90
24638;DHT22;12773;50.162;8.548;2023-04-03T00:22:06;7.10;99.90
24638;DHT22;12773;50.162;8.548;2023-04-03T00:24:54;7.10;99.90
24638;DHT22;12773;50.162;8.548;2023-04-03T00:27:42;7.20;99.90
24638;DHT22;12773;50.162;8.548;2023-04-03T00:30:29;7.30;99.90
24638;DHT22;12773;50.162;8.548;2023-04-03T00:33:17;7.30;99.90
24638;DHT22;12773;50.162;8.548;2023-04-03T00:36:10;7.30;99.90
24638;DHT22;12773;50.162;8.548;2023-04-03T00:38:58;7.40;99.90
24638;DHT22;12773;50.162;8.548;2023-04-03T00:41:45;7.50;99.90
24638;DHT22;12773;50.162;8.548;2023-04-03T00:47:27;7.50;99.90
24638;DHT22;12773;50.162;8.548;2023-04-03T00:50:15;7.50;99.90
24638;DHT22;12773;50.162;8.548;2023-04-03T00:53:03;7.50;99.90
24638;DHT22;12773;50.162;8.548;2023-04-03T00:55:54;7.40;99.90
24638;DHT22;12773;50.162;8.548;2023-04-03T00:59:10;7.30;99.90
24638;DHT22;12773;50.162;8.548;2023-04-03T01:01:57;7.30;99.90
24638;DHT22;12773;50.162;8.548;2023-04-03T01:04:46;7.30;99.90
24638;DHT22;12773;50.162;8.548;2023-04-03T01:07:33;7.20;99.90
24638;DHT22;12773;50.162;8.548;2023-04-03T01:10:22;7.30;99.90
24638;DHT22;12773;50.162;8.548;2023-04-03T01:13:30;7.30;99.90
24638;DHT22;12773;50.162;8.548;2023-04-03T01:16:18;7.30;99.90
24638;DHT22;12773;50.162;8.548;2023-04-03T01:19:08;7.20;99.90
24638;DHT22;12773;50.162;8.548;2023-04-03T01:22:15;7.20;99.90
24638;DHT22;12773;50.162;8.548;2023-04-03T01:25:03;7.30;99.90
24638;DHT22;12773;50.162;8.548;2023-04-03T01:27:52;7.40;99.90
24638;DHT22;12773;50.162;8.548;2023-04-03T01:33:47;7.40;99.90
24638;DHT22;12773;50.162;8.548;2023-04-03T01:36:35;7.40;99.90
24638;DHT22;12773;50.162;8.548;2023-04-03T01:39:22;7.40;99.90
24638;DHT22;12773;50.162;8.548;2023-04-03T01:42:10;7.30;99.90
24638;DHT22;12773;50.162;8.548;2023-04-03T01:44:58;7.20;99.90
24638;DHT22;12773;50.162;8.548;2023-04-03T01:47:46;7.20;99.90
24638;DHT22;12773;50.162;8.548;2023-04-03T01:50:33;7.20;99.90
24638;DHT22;12773;50.162;8.548;2023-04-03T01:53:21;7.20;99.90
24638;DHT22;12773;50.162;8.548;2023-04-03T01:56:09;7.20;99.90
24638;DHT22;12773;50.162;8.548;2023-04-03T01:58:56;7.20;99.90
24638;DHT22;12773;50.162;8.548;2023-04-03T02:01:44;7.20;99.90
24638;DHT22;12773;50.162;8.548;2023-04-03T02:04:32;7.20;99.90
24638;DHT22;12773;50.162;8.548;2023-04-03T02:07:19;7.10;99.90
24638;DHT22;12773;50.162;8.548;2023-04-03T02:10:06;7.10;99.90
24638;DHT22;12773;50.162;8.548;2023-04-03T02:12:54;7.10;99.90
24638;DHT22;12773;50.162;8.548;2023-04-03T02:15:42;7.00;99.90
24638;DHT22;12773;50.162;8.548;2023-04-03T02:18:29;7.00;99.90
24638;DHT22;12773;50.162;8.548;2023-04-03T02:21:17;6.90;99.90
24638;DHT22;12773;50.162;8.548;2023-04-03T02:24:04;6.90;99.90
24638;DHT22;12773;50.162;8.548;2023-04-03T02:26:52;6.90;99.90
24638;DHT22;12773;50.162;8.548;2023-04-03T02:29:39;6.90;99.90
24638;DHT22;12773;50.162;8.548;2023-04-03T02:32:27;6.90;99.90
24638;DHT22;12773;50.162;8.548;2023-04-03T02:35:14;6.90;99.90
24638;DHT22;12773;50.162;8.548;2023-04-03T02:38:02;6.90;99.90
24638;DHT22;12773;50.162;8.548;2023-04-03T02:40:49;6.80;99.90
24638;DHT22;12773;50.162;8.548;2023-04-03T02:43:37;6.80;99.90
24638;DHT22;12773;50.162;8.548;2023-04-03T02:46:25;6.80;99.90
24638;DHT22;12773;50.162;8.548;2023-04-03T02:49:12;6.80;99.90
24638;DHT22;12773;50.162;8.548;2023-04-03T02:52:00;6.70;99.90
24638;DHT22;12773;50.162;8.548;2023-04-03T02:54:47;6.60;99.90
24638;DHT22;12773;50.162;8.548;2023-04-03T02:57:34;6.60;99.90
24638;DHT22;12773;50.162;8.548;2023-04-03T03:00:22;6.70;99.90
24638;DHT22;12773;50.162;8.548;2023-04-03T03:03:09;6.60;99.90
24638;DHT22;12773;50.162;8.548;2023-04-03T03:06:09;6.50;99.90
24638;DHT22;12773;50.162;8.548;2023-04-03T03:08:53;6.40;99.90
24638;DHT22;12773;50.162;8.548;2023-04-03T03:11:40;6.20;99.90
24638;DHT22;12773;50.162;8.548;2023-04-03T03:14:27;6.20;99.90
24638;DHT22;12773;50.162;8.548;2023-04-03T03:17:15;6.10;99.90
24638;DHT22;12773;50.162;8.548;2023-04-03T03:20:03;6.10;99.90
24638;DHT22;12773;50.162;8.548;2023-04-03T03:22:51;6.00;99.90
24638;DHT22;12773;50.162;8.548;2023-04-03T03:25:40;6.00;99.90
24638;DHT22;12773;50.162;8.548;2023-04-03T03:28:28;6.00;99.90
24638;DHT22;12773;50.162;8.548;2023-04-03T03:31:16;5.90;99.90
24638;DHT22;12773;50.162;8.548;2023-04-03T03:34:03;5.90;99.90
24638;DHT22;12773;50.162;8.548;2023-04-03T03:36:51;5.90;99.90
24638;DHT22;12773;50.162;8.548;2023-04-03T03:39:38;5.90;99.90
24638;DHT22;12773;50.162;8.548;2023-04-03T03:42:25;5.80;99.90
24638;DHT22;12773;50.162;8.548;2023-04-03T03:45:13;5.90;99.90
24638;DHT22;12773;50.162;8.548;2023-04-03T03:48:01;5.80;99.90
24638;DHT22;12773;50.162;8.548;2023-04-03T03:50:49;5.80;99.90
24638;DHT22;12773;50.162;8.548;2023-04-03T03:53:37;5.70;99.90
24638;DHT22;12773;50.162;8.548;2023-04-03T03:56:24;5.60;99.90
24638;DHT22;12773;50.162;8.548;2023-04-03T03:59:13;5.60;99.90
24638;DHT22;12773;50.162;8.548;2023-04-03T04:02:00;5.30;99.90
24638;DHT22;12773;50.162;8.548;2023-04-03T04:04:49;5.30;99.90
24638;DHT22;12773;50.162;8.548;2023-04-03T04:07:36;5.20;99.90
24638;DHT22;12773;50.162;8.548;2023-04-03T04:10:23;5.10;99.90
24638;DHT22;12773;50.162;8.548;2023-04-03T04:13:10;5.00;99.90
24638;DHT22;12773;50.162;8.548;2023-04-03T04:15:58;5.10;99.90
24638;DHT22;12773;50.162;8.548;2023-04-03T04:18:46;5.10;99.90
24638;DHT22;12773;50.162;8.548;2023-04-03T04:21:34;5.00;99.90
24638;DHT22;12773;50.162;8.548;2023-04-03T04:24:22;5.00;99.90
24638;DHT22;12773;50.162;8.548;2023-04-03T04:27:09;5.00;99.90
24638;DHT22;12773;50.162;8.548;2023-04-03T04:29:57;5.00;99.90
24638;DHT22;12773;50.162;8.548;2023-04-03T04:32:44;5.00;99.90
24638;DHT22;12773;50.162;8.548;2023-04-03T04:35:32;5.00;99.90
24638;DHT22;12773;50.162;8.548;2023-04-03T04:38:19;4.90;99.90
24638;DHT22;12773;50.162;8.548;2023-04-03T04:41:06;4.80;99.90
24638;DHT22;12773;50.162;8.548;2023-04-03T04:43:54;4.80;99.90
24638;DHT22;12773;50.162;8.548;2023-04-03T04:46:41;4.80;99.90
24638;DHT22;12773;50.162;8.548;2023-04-03T04:49:29;4.70;99.90
24638;DHT22;12773;50.162;8.548;2023-04-03T04:52:16;4.70;99.90
24638;DHT22;12773;50.162;8.548;2023-04-03T04:55:04;4.60;99.90
24638;DHT22;12773;50.162;8.548;2023-04-03T04:57:51;4.60;99.90
24638;DHT22;12773;50.162;8.548;2023-04-03T05:00:39;4.60;99.90
24638;DHT22;12773;50.162;8.548;2023-04-03T05:03:26;4.50;99.90
24638;DHT22;12773;50.162;8.548;2023-04-03T05:06:14;4.50;99.90
24638;DHT22;12773;50.162;8.548;2023-04-03T05:09:02;4.50;99.90
24638;DHT22;12773;50.162;8.548;2023-04-03T05:11:49;4.50;99.90
24638;DHT22;12773;50.162;8.548;2023-04-03T05:14:37;4.50;99.90
24638;DHT22;12773;50.162;8.548;2023-04-03T05:17:24;4.50;99.90
24638;DHT22;12773;50.162;8.548;2023-04-03T05:20:12;4.50;99.90
24638;DHT22;12773;50.162;8.548;2023-04-03T05:23:00;4.50;99.90
24638;DHT22;12773;50.162;8.548;2023-04-03T05:25:47;4.50;99.90
24638;DHT22;12773;50.162;8.548;2023-04-03T05:28:35;4.60;99.90
24638;DHT22;12773;50.162;8.548;2023-04-03T05:31:23;4.50;99.90
24638;DHT22;12773;50.162;8.548;2023-04-03T05:34:11;4.50;99.90
24638;DHT22;12773;50.162;8.548;2023-04-03T05:36:58;4.60;99.90
24638;DHT22;12773;50.162;8.548;2023-04-03T05:39:46;4.60;99.90
24638;DHT22;12773;50.162;8.548;2023-04-03T05:42:33;4.50;99.90
24638;DHT22;12773;50.162;8.548;2023-04-03T05:45:21;4.60;99.90
24638;DHT22;12773;50.162;8.548;2023-04-03T05:48:08;4.60;99.90
24638;DHT22;12773;50.162;8.548;2023-04-03T05:50:55;4.50;99.90
24638;DHT22;12773;50.162;8.548;2023-04-03T05:53:43;4.60;99.90
24638;DHT22;12773;50.162;8.548;2023-04-03T05:56:32;4.60;99.90
24638;DHT22;12773;50.162;8.548;2023-04-03T05:59:20;4.60;99.90
24638;DHT22;12773;50.162;8.548;2023-04-03T06:02:13;4.70;99.90
24638;DHT22;12773;50.162;8.548;2023-04-03T06:05:01;4.60;99.90
24638;DHT22;12773;50.162;8.548;2023-04-03T06:07:49;4.80;99.90
24638;DHT22;12773;50.162;8.548;2023-04-03T06:10:37;4.80;99.90
24638;DHT22;12773;50.162;8.548;2023-04-03T06:13:25;4.80;99.90
24638;DHT22;12773;50.162;8.548;2023-04-03T06:16:13;4.70;99.90
24638;DHT22;12773;50.162;8.548;2023-04-03T06:19:02;4.80;99.90
24638;DHT22;12773;50.162;8.548;2023-04-03T06:21:50;4.80;99.90
24638;DHT22;12773;50.162;8.548;2023-04-03T06:24:38;4.70;99.90
24638;DHT22;12773;50.162;8.548;2023-04-03T06:27:25;4.70;99.90
24638;DHT22;12773;50.162;8.548;2023-04-03T06:30:13;4.70;99.90
24638;DHT22;12773;50.162;8.548;2023-04-03T06:33:00;4.70;99.90
24638;DHT22;12773;50.162;8.548;2023-04-03T06:35:47;4.70;99.90
24638;DHT22;12773;50.162;8.548;2023-04-03T06:38:35;4.80;99.90
24638;DHT22;12773;50.162;8.548;2023-04-03T06:41:22;4.80;99.90
24638;DHT22;12773;50.162;8.548;2023-04-03T06:44:10;4.80;99.90
24638;DHT22;12773;50.162;8.548;2023-04-03T06:47:02;4.90;99.90
24638;DHT22;12773;50.162;8.548;2023-04-03T06:49:49;4.90;99.90
24638;DHT22;12773;50.162;8.548;2023-04-03T06:52:37;5.00;99.90
24638;DHT22;12773;50.162;8.548;2023-04-03T06:55:26;4.90;99.90
24638;DHT22;12773;50.162;8.548;2023-04-03T06:58:14;4.90;99.90
24638;DHT22;12773;50.162;8.548;2023-04-03T07:01:02;5.10;99.90
24638;DHT22;12773;50.162;8.548;2023-04-03T07:03:50;5.00;99.90
24638;DHT22;12773;50.162;8.548;2023-04-03T07:06:39;5.10;99.90
24638;DHT22;12773;50.162;8.548;2023-04-03T07:09:26;5.10;99.90
24638;DHT22;12773;50.162;8.548;2023-04-03T07:12:14;5.10;99.90
24638;DHT22;12773;50.162;8.548;2023-04-03T07:15:02;5.40;99.90
24638;DHT22;12773;50.162;8.548;2023-04-03T07:17:51;5.20;99.90
24638;DHT22;12773;50.162;8.548;2023-04-03T07:20:38;5.20;99.90
24638;DHT22;12773;50.162;8.548;2023-04-03T07:23:26;5.20;99.90
24638;DHT22;12773;50.162;8.548;2023-04-03T07:26:13;5.30;99.90
24638;DHT22;12773;50.162;8.548;2023-04-03T07:29:01;5.30;99.90
24638;DHT22;12773;50.162;8.548;2023-04-03T07:31:48;5.40;99.90
24638;DHT22;12773;50.162;8.548;2023-04-03T07:34:36;5.50;99.90
24638;DHT22;12773;50.162;8.548;2023-04-03T07:37:23;5.70;99.90
24638;DHT22;12773;50.162;8.548;2023-04-03T07:40:11;5.60;99.90
24638;DHT22;12773;50.162;8.548;2023-04-03T07:42:58;5.50;99.90
24638;DHT22;12773;50.162;8.548;2023-04-03T07:45:47;5.40;99.90
24638;DHT22;12773;50.162;8.548;2023-04-03T07:48:37;5.50;99.90
24638;DHT22;12773;50.162;8.548;2023-04-03T07:51:24;5.50;99.90
24638;DHT22;12773;50.162;8.548;2023-04-03T07:54:18;5.50;99.90
24638;DHT22;12773;50.162;8.548;2023-04-03T07:57:01;5.60;99.90
24638;DHT22;12773;50.162;8.548;2023-04-03T07:59:49;5.60;99.90
24638;DHT22;12773;50.162;8.548;2023-04-03T08:02:36;5.60;99.90
24638;DHT22;12773;50.162;8.548;2023-04-03T08:05:24;5.60;99.90
24638;DHT22;12773;50.162;8.548;2023-04-03T08:08:13;5.60;99.90
24638;DHT22;12773;50.162;8.548;2023-04-03T08:11:03;5.70;99.90
24638;DHT22;12773;50.162;8.548;2023-04-03T08:13:51;5.70;99.90
24638;DHT22;12773;50.162;8.548;2023-04-03T08:16:38;5.80;99.90
24638;DHT22;12773;50.162;8.548;2023-04-03T08:19:26;6.10;99.90
24638;DHT22;12773;50.162;8.548;2023-04-03T08:22:13;6.10;99.90
24638;DHT22;12773;50.162;8.548;2023-04-03T08:25:02;6.20;99.90
24638;DHT22;12773;50.162;8.548;2023-04-03T08:27:49;6.00;99.90
24638;DHT22;12773;50.162;8.548;2023-04-03T08:30:41;6.10;99.90
24638;DHT22;12773;50.162;8.548;2023-04-03T08:33:29;6.20;99.90
24638;DHT22;12773;50.162;8.548;2023-04-03T08:36:27;6.10;99.90
24638;DHT22;12773;50.162;8.548;2023-04-03T08:39:10;6.40;99.90
24638;DHT22;12773;50.162;8.548;2023-04-03T08:42:00;6.50;99.90
24638;DHT22;12773;50.162;8.548;2023-04-03T08:45:01;6.40;99.90
24638;DHT22;12773;50.162;8.548;2023-04-03T08:47:53;6.40;99.90
24638;DHT22;12773;50.162;8.548;2023-04-03T08:50:43;6.50;99.90
24638;DHT22;12773;50.162;8.548;2023-04-03T08:53:34;6.50;99.90
24638;DHT22;12773;50.162;8.548;2023-04-03T08:56:24;6.50;99.90
24638;DHT22;12773;50.162;8.548;2023-04-03T08:59:14;6.50;99.90
24638;DHT22;12773;50.162;8.548;2023-04-03T09:02:21;6.60;99.90
24638;DHT22;12773;50.162;8.548;2023-04-03T09:04:53;6.50;99.90
24638;DHT22;12773;50.162;8.548;2023-04-03T09:07:51;6.70;99.90
24638;DHT22;12773;50.162;8.548;2023-04-03T09:10:39;6.80;99.90
24638;DHT22;12773;50.162;8.548;2023-04-03T09:13:43;6.80;99.90
24638;DHT22;12773;50.162;8.548;2023-04-03T09:16:32;7.00;99.90
24638;DHT22;12773;50.162;8.548;2023-04-03T09:22:21;7.20;99.90
24638;DHT22;12773;50.162;8.548;2023-04-03T09:25:29;7.40;99.90
24638;DHT22;12773;50.162;8.548;2023-04-03T09:28:13;7.40;99.90
24638;DHT22;12773;50.162;8.548;2023-04-03T09:31:01;7.30;99.90
24638;DHT22;12773;50.162;8.548;2023-04-03T09:33:52;7.20;99.90
24638;DHT22;12773;50.162;8.548;2023-04-03T09:36:42;7.40;99.90
24638;DHT22;12773;50.162;8.548;2023-04-03T09:39:29;7.60;99.90
24638;DHT22;12773;50.162;8.548;2023-04-03T09:42:19;7.50;99.90
24638;DHT22;12773;50.162;8.548;2023-04-03T09:45:18;7.50;99.90
24638;DHT22;12773;50.162;8.548;2023-04-03T09:51:00;8.00;99.90
24638;DHT22;12773;50.162;8.548;2023-04-03T09:53:49;7.70;99.90
24638;DHT22;12773;50.162;8.548;2023-04-03T09:56:37;7.80;99.90
24638;DHT22;12773;50.162;8.548;2023-04-03T09:59:24;7.90;99.90
24638;DHT22;12773;50.162;8.548;2023-04-03T10:02:28;8.10;99.90
24638;DHT22;12773;50.162;8.548;2023-04-03T10:05:34;8.60;99.90
24638;DHT22;12773;50.162;8.548;2023-04-03T10:08:33;8.40;99.90
24638;DHT22;12773;50.162;8.548;2023-04-03T10:11:25;8.10;99.90
24638;DHT22;12773;50.162;8.548;2023-04-03T10:14:17;8.50;99.90
24638;DHT22;12773;50.162;8.548;2023-04-03T10:20:25;8.70;99.90
24638;DHT22;12773;50.162;8.548;2023-04-03T10:23:17;8.60;99.90
24638;DHT22;12773;50.162;8.548;2023-04-03T10:26:17;8.20;99.90
24638;DHT22;12773;50.162;8.548;2023-04-03T10:29:28;8.30;99.90
24638;DHT22;12773;50.162;8.548;2023-04-03T10:36:29;8.30;99.90
24638;DHT22;12773;50.162;8.548;2023-04-03T10:38:45;8.30;99.90
24638;DHT22;12773;50.162;8.548;2023-04-03T10:45:00;8.20;99.90
24638;DHT22;12773;50.162;8.548;2023-04-03T10:47:51;8.10;99.90
24638;DHT22;12773;50.162;8.548;2023-04-03T10:53:55;8.90;99.90
24638;DHT22;12773;50.162;8.548;2023-04-03T10:56:47;9.00;99.90
24638;DHT22;12773;50.162;8.548;2023-04-03T10:59:58;9.00;99.90
24638;DHT22;12773;50.162;8.548;2023-04-03T11:02:55;8.90;99.90
24638;DHT22;12773;50.162;8.548;2023-04-03T11:05:45;9.10;99.90
24638;DHT22;12773;50.162;8.548;2023-04-03T11:08:45;9.50;99.90
24638;DHT22;12773;50.162;8.548;2023-04-03T11:11:37;9.50;99.00
24638;DHT22;12773;50.162;8.548;2023-04-03T11:14:34;9.40;97.80
24638;DHT22;12773;50.162;8.548;2023-04-03T11:17:27;9.80;99.30
24638;DHT22;12773;50.162;8.548;2023-04-03T11:20:26;10.20;97.80
24638;DHT22;12773;50.162;8.548;2023-04-03T11:23:22;10.70;99.00
24638;DHT22;12773;50.162;8.548;2023-04-03T11:26:15;10.20;95.80
24638;DHT22;12773;50.162;8.548;2023-04-03T11:29:06;10.10;95.50
24638;DHT22;12773;50.162;8.548;2023-04-03T11:35:13;9.50;95.20
24638;DHT22;12773;50.162;8.548;2023-04-03T11:38:03;9.80;95.50
24638;DHT22;12773;50.162;8.548;2023-04-03T11:40:54;9.80;94.20
24638;DHT22;12773;50.162;8.548;2023-04-03T11:44:04;10.20;95.00
24638;DHT22;12773;50.162;8.548;2023-04-03T11:46:59;11.00;93.00
24638;DHT22;12773;50.162;8.548;2023-04-03T11:55:43;10.40;91.60
24638;DHT22;12773;50.162;8.548;2023-04-03T11:58:33;10.30;90.90
24638;DHT22;12773;50.162;8.548;2023-04-03T12:01:45;10.40;91.50
24638;DHT22;12773;50.162;8.548;2023-04-03T12:04:32;10.30;90.90
24638;DHT22;12773;50.162;8.548;2023-04-03T12:07:19;10.30;92.20
24638;DHT22;12773;50.162;8.548;2023-04-03T12:10:15;10.50;89.10
24638;DHT22;12773;50.162;8.548;2023-04-03T12:13:16;10.90;90.00
24638;DHT22;12773;50.162;8.548;2023-04-03T12:16:06;10.70;90.20
24638;DHT22;12773;50.162;8.548;2023-04-03T12:18:56;10.40;89.80
24638;DHT22;12773;50.162;8.548;2023-04-03T12:24:39;10.30;89.40
24638;DHT22;12773;50.162;8.548;2023-04-03T12:27:33;9.80;89.10
24638;DHT22;12773;50.162;8.548;2023-04-03T12:30:25;9.90;90.00
24638;DHT22;12773;50.162;8.548;2023-04-03T12:33:40;9.90;90.50
24638;DHT22;12773;50.162;8.548;2023-04-03T12:36:38;9.70;91.40
24638;DHT22;12773;50.162;8.548;2023-04-03T12:42:39;10.10;88.40
24638;DHT22;12773;50.162;8.548;2023-04-03T12:45:26;10.00;88.50
24638;DHT22;12773;50.162;8.548;2023-04-03T12:48:20;10.30;85.90
24638;DHT22;12773;50.162;8.548;2023-04-03T12:51:07;10.10;87.30
24638;DHT22;12773;50.162;8.548;2023-04-03T12:54:01;10.30;86.90
24638;DHT22;12773;50.162;8.548;2023-04-03T12:56:44;9.80;84.30
24638;DHT22;12773;50.162;8.548;2023-04-03T12:59:32;10.10;86.30
24638;DHT22;12773;50.162;8.548;2023-04-03T13:02:31;10.50;84.80
24638;DHT22;12773;50.162;8.548;2023-04-03T13:05:22;10.20;83.70
24638;DHT22;12773;50.162;8.548;2023-04-03T13:08:12;10.00;84.00
24638;DHT22;12773;50.162;8.548;2023-04-03T13:11:07;10.20;85.60
24638;DHT22;12773;50.162;8.548;2023-04-03T13:14:00;10.30;80.40
24638;DHT22;12773;50.162;8.548;2023-04-03T13:17:15;10.40;82.80
24638;DHT22;12773;50.162;8.548;2023-04-03T13:20:11;10.70;85.70
24638;DHT22;12773;50.162;8.548;2023-04-03T13:23:05;10.90;82.60
24638;DHT22;12773;50.162;8.548;2023-04-03T13:25:58;10.60;83.60
24638;DHT22;12773;50.162;8.548;2023-04-03T13:28:44;10.60;83.50
24638;DHT22;12773;50.162;8.548;2023-04-03T13:31:35;10.50;82.80
24638;DHT22;12773;50.162;8.548;2023-04-03T13:34:25;10.50;85.30
24638;DHT22;12773;50.162;8.548;2023-04-03T13:37:25;10.40;83.40
24638;DHT22;12773;50.162;8.548;2023-04-03T13:40:13;10.40;80.90
24638;DHT22;12773;50.162;8.548;2023-04-03T13:43:06;10.30;80.20
24638;DHT22;12773;50.162;8.548;2023-04-03T13:49:00;10.40;80.20
24638;DHT22;12773;50.162;8.548;2023-04-03T13:51:49;10.10;79.60
24638;DHT22;12773;50.162;8.548;2023-04-03T13:54:39;10.20;78.80
24638;DHT22;12773;50.162;8.548;2023-04-03T13:57:27;10.20;80.30
24638;DHT22;12773;50.162;8.548;2023-04-03T14:03:23;10.50;79.00
24638;DHT22;12773;50.162;8.548;2023-04-03T14:06:14;10.40;79.10
24638;DHT22;12773;50.162;8.548;2023-04-03T14:09:02;10.50;79.30
24638;DHT22;12773;50.162;8.548;2023-04-03T14:11:52;10.60;82.90
24638;DHT22;12773;50.162;8.548;2023-04-03T14:14:40;10.70;79.90
24638;DHT22;12773;50.162;8.548;2023-04-03T14:17:27;10.50;80.00
24638;DHT22;12773;50.162;8.548;2023-04-03T14:20:17;10.30;82.80
24638;DHT22;12773;50.162;8.548;2023-04-03T14:23:06;10.20;83.00
24638;DHT22;12773;50.162;8.548;2023-04-03T14:25:53;10.30;82.60
24638;DHT22;12773;50.162;8.548;2023-04-03T14:28:42;10.60;80.90
24638;DHT22;12773;50.162;8.548;2023-04-03T14:31:30;10.70;78.00
24638;DHT22;12773;50.162;8.548;2023-04-03T14:34:19;10.70;80.20
24638;DHT22;12773;50.162;8.548;2023-04-03T14:37:12;10.80;79.30
24638;DHT22;12773;50.162;8.548;2023-04-03T14:40:02;10.50;77.20
24638;DHT22;12773;50.162;8.548;2023-04-03T14:42:50;10.50;77.10
24638;DHT22;12773;50.162;8.548;2023-04-03T14:45:39;10.40;81.00
24638;DHT22;12773;50.162;8.548;2023-04-03T14:48:28;10.40;78.50
24638;DHT22;12773;50.162;8.548;2023-04-03T14:51:19;10.90;81.80
24638;DHT22;12773;50.162;8.548;2023-04-03T14:54:17;10.90;78.70
24638;DHT22;12773;50.162;8.548;2023-04-03T14:57:00;11.00;80.40
24638;DHT22;12773;50.162;8.548;2023-04-03T14:59:48;11.00;81.70
24638;DHT22;12773;50.162;8.548;2023-04-03T15:02:37;10.70;77.80
24638;DHT22;12773;50.162;8.548;2023-04-03T15:05:25;10.50;77.00
24638;DHT22;12773;50.162;8.548;2023-04-03T15:08:24;10.60;76.00
24638;DHT22;12773;50.162;8.548;2023-04-03T15:11:12;10.60;76.40
24638;DHT22;12773;50.162;8.548;2023-04-03T15:13:59;10.80;74.80
24638;DHT22;12773;50.162;8.548;2023-04-03T15:16:47;10.70;76.80
24638;DHT22;12773;50.162;8.548;2023-04-03T15:19:38;10.80;74.30
24638;DHT22;12773;50.162;8.548;2023-04-03T15:22:26;11.00;74.40
24638;DHT22;12773;50.162;8.548;2023-04-03T15:25:15;10.80;74.50
24638;DHT22;12773;50.162;8.548;2023-04-03T15:28:02;10.80;75.40
24638;DHT22;12773;50.162;8.548;2023-04-03T15:30:50;10.90;77.10
24638;DHT22;12773;50.162;8.548;2023-04-03T15:33:37;10.60;76.30
24638;DHT22;12773;50.162;8.548;2023-04-03T15:36:25;10.50;77.90
24638;DHT22;12773;50.162;8.548;2023-04-03T15:39:14;10.40;76.10
24638;DHT22;12773;50.162;8.548;2023-04-03T15:42:03;10.50;74.70
24638;DHT22;12773;50.162;8.548;2023-04-03T15:44:51;10.60;74.70
24638;DHT22;12773;50.162;8.548;2023-04-03T15:47:39;10.60;74.40
24638;DHT22;12773;50.162;8.548;2023-04-03T15:50:26;10.80;75.60
24638;DHT22;12773;50.162;8.548;2023-04-03T15:53:13;10.90;74.50
24638;DHT22;12773;50.162;8.548;2023-04-03T15:56:03;10.80;74.80
24638;DHT22;12773;50.162;8.548;2023-04-03T15:58:51;11.10;75.80
24638;DHT22;12773;50.162;8.548;2023-04-03T16:01:39;11.30;76.90
24638;DHT22;12773;50.162;8.548;2023-04-03T16:04:27;11.10;74.40
24638;DHT22;12773;50.162;8.548;2023-04-03T16:07:15;10.90;76.30
24638;DHT22;12773;50.162;8.548;2023-04-03T16:10:02;10.80;76.50
24638;DHT22;12773;50.162;8.548;2023-04-03T16:12:50;11.00;75.40
24638;DHT22;12773;50.162;8.548;2023-04-03T16:15:38;10.80;73.80
24638;DHT22;12773;50.162;8.548;2023-04-03T16:18:25;11.20;74.20
24638;DHT22;12773;50.162;8.548;2023-04-03T16:21:14;11.30;72.90
24638;DHT22;12773;50.162;8.548;2023-04-03T16:24:02;11.20;72.80
24638;DHT22;12773;50.162;8.548;2023-04-03T16:26:51;10.80;72.70
24638;DHT22;12773;50.162;8.548;2023-04-03T16:29:39;10.70;74.70
24638;DHT22;12773;50.162;8.548;2023-04-03T16:32:29;10.80;75.20
24638;DHT22;12773;50.162;8.548;2023-04-03T16:35:16;10.70;73.90
24638;DHT22;12773;50.162;8.548;2023-04-03T16:38:04;10.60;71.90
24638;DHT22;12773;50.162;8.548;2023-04-03T16:40:52;10.60;72.40
24638;DHT22;12773;50.162;8.548;2023-04-03T16:43:40;10.60;72.10
24638;DHT22;12773;50.162;8.548;2023-04-03T16:46:27;10.70;72.30
24638;DHT22;12773;50.162;8.548;2023-04-03T16:49:15;10.90;73.00
24638;DHT22;12773;50.162;8.548;2023-04-03T16:52:03;10.40;72.10
24638;DHT22;12773;50.162;8.548;2023-04-03T16:54:51;10.30;74.40
24638;DHT22;12773;50.162;8.548;2023-04-03T16:57:39;10.00;73.10
24638;DHT22;12773;50.162;8.548;2023-04-03T17:00:30;10.00;75.20
24638;DHT22;12773;50.162;8.548;2023-04-03T17:03:19;9.60;72.60
24638;DHT22;12773;50.162;8.548;2023-04-03T17:06:07;9.40;72.40
24638;DHT22;12773;50.162;8.548;2023-04-03T17:08:56;9.20;72.90
24638;DHT22;12773;50.162;8.548;2023-04-03T17:11:43;9.10;73.60
24638;DHT22;12773;50.162;8.548;2023-04-03T17:14:33;9.00;75.60
24638;DHT22;12773;50.162;8.548;2023-04-03T17:17:23;8.90;78.70
24638;DHT22;12773;50.162;8.548;2023-04-03T17:20:12;8.70;79.50
24638;DHT22;12773;50.162;8.548;2023-04-03T17:22:59;8.60;79.00
24638;DHT22;12773;50.162;8.548;2023-04-03T17:25:47;8.30;78.30
24638;DHT22;12773;50.162;8.548;2023-04-03T17:28:34;8.30;79.60
24638;DHT22;12773;50.162;8.548;2023-04-03T17:31:22;8.20;78.60
24638;DHT22;12773;50.162;8.548;2023-04-03T17:34:09;8.10;80.10
24638;DHT22;12773;50.162;8.548;2023-04-03T17:37:00;7.90;80.50
24638;DHT22;12773;50.162;8.548;2023-04-03T17:39:48;7.90;80.20
24638;DHT22;12773;50.162;8.548;2023-04-03T17:42:35;7.80;80.80
24638;DHT22;12773;50.162;8.548;2023-04-03T17:45:26;7.80;81.00
24638;DHT22;12773;50.162;8.548;2023-04-03T17:48:13;7.90;82.00
24638;DHT22;12773;50.162;8.548;2023-04-03T17:51:17;7.90;82.20
24638;DHT22;12773;50.162;8.548;2023-04-03T17:53:59;7.70;82.30
24638;DHT22;12773;50.162;8.548;2023-04-03T17:56:47;7.60;84.00
24638;DHT22;12773;50.162;8.548;2023-04-03T17:59:34;7.50;85.30
24638;DHT22;12773;50.162;8.548;2023-04-03T18:02:22;7.40;87.40
24638;DHT22;12773;50.162;8.548;2023-04-03T18:05:09;7.40;88.30
24638;DHT22;12773;50.162;8.548;2023-04-03T18:07:57;7.30;88.90
24638;DHT22;12773;50.162;8.548;2023-04-03T18:10:45;7.20;90.00
24638;DHT22;12773;50.162;8.548;2023-04-03T18:13:33;7.10;90.70
24638;DHT22;12773;50.162;8.548;2023-04-03T18:16:22;7.00;91.10
24638;DHT22;12773;50.162;8.548;2023-04-03T18:19:09;7.00;91.40
24638;DHT22;12773;50.162;8.548;2023-04-03T18:22:05;7.00;91.00
24638;DHT22;12773;50.162;8.548;2023-04-03T18:24:57;6.90;90.60
24638;DHT22;12773;50.162;8.548;2023-04-03T18:27:45;6.90;90.70
24638;DHT22;12773;50.162;8.548;2023-04-03T18:30:34;6.80;90.70
24638;DHT22;12773;50.162;8.548;2023-04-03T18:33:22;6.80;90.80
24638;DHT22;12773;50.162;8.548;2023-04-03T18:36:10;6.70;90.90
24638;DHT22;12773;50.162;8.548;2023-04-03T18:38:57;6.70;91.20
24638;DHT22;12773;50.162;8.548;2023-04-03T18:41:45;6.60;91.40
24638;DHT22;12773;50.162;8.548;2023-04-03T18:44:32;6.50;91.80
24638;DHT22;12773;50.162;8.548;2023-04-03T18:47:21;6.50;92.10
24638;DHT22;12773;50.162;8.548;2023-04-03T18:50:09;6.50;92.50
24638;DHT22;12773;50.162;8.548;2023-04-03T18:52:57;6.50;93.10